Time;durP1;ratioP1;P1;durP2;ratioP2;P2;SDS_P1;SDS_P2;PMS_P1;PMS_P2;Temp;Humidity;BMP_temperature;BMP_pressure;BME280_temperature;BME280_humidity;BME280_pressure;Samples;Min_cycle;Max_cycle;Signal;HPM_P1;HPM_P2
2024/04/08 00:00:46;;;;;;;2.55;0.50;;;14.60;99.90;;;;;;6160255;23;20012;-78
2024/04/08 00:03:13;;;;;;;1.90;0.50;;;14.60;99.90;;;;;;6175493;23;20005;-78
2024/04/08 00:05:39;;;;;;;1.88;0.43;;;14.50;99.90;;;;;;6125252;23;20012;-79
2024/04/08 00:08:06;;;;;;;2.95;0.65;;;14.50;99.90;;;;;;6184112;23;20007;-78
2024/04/08 00:10:35;;;;;;;1.45;0.60;;;14.50;99.90;;;;;;6149271;23;20291;-78
2024/04/08 00:13:01;;;;;;;1.83;0.50;;;14.40;99.90;;;;;;6125687;23;20434;-79
2024/04/08 00:15:28;;;;;;;2.58;0.57;;;14.40;99.90;;;;;;6149179;23;20009;-78
2024/04/08 00:17:54;;;;;;;1.92;0.65;;;14.40;99.90;;;;;;6150752;23;20012;-79
2024/04/08 00:20:20;;;;;;;2.30;0.60;;;14.40;99.90;;;;;;6149765;23;20020;-80
2024/04/08 00:22:51;;;;;;;3.28;0.80;;;14.40;99.90;;;;;;6125269;23;20020;-79
2024/04/08 00:25:18;;;;;;;2.33;0.82;;;14.40;99.90;;;;;;6160040;23;20343;-79
2024/04/08 00:27:45;;;;;;;2.45;0.68;;;14.30;99.90;;;;;;6160686;23;20438;-79
2024/04/08 00:30:11;;;;;;;1.63;0.50;;;14.40;99.90;;;;;;6149358;23;20017;-78
2024/04/08 00:32:37;;;;;;;3.38;0.68;;;14.40;99.90;;;;;;6209380;23;20015;-79
2024/04/08 00:35:04;;;;;;;2.72;0.82;;;14.30;99.90;;;;;;6150072;23;20009;-78
2024/04/08 00:37:31;;;;;;;1.98;0.70;;;14.40;99.90;;;;;;6175255;23;20001;-79
2024/04/08 00:39:57;;;;;;;1.75;0.57;;;14.30;99.90;;;;;;6149377;23;20013;-78
2024/04/08 00:42:23;;;;;;;2.97;0.70;;;14.30;99.90;;;;;;6184243;23;20265;-78
2024/04/08 00:44:50;;;;;;;3.40;0.70;;;14.40;99.90;;;;;;6125649;23;20013;-78
2024/04/08 00:47:16;;;;;;;1.65;0.70;;;14.30;99.90;;;;;;6161188;23;20008;-78
2024/04/08 00:49:44;;;;;;;2.05;0.55;;;14.30;99.90;;;;;;6184923;23;20016;-76
2024/04/08 00:52:12;;;;;;;2.80;0.70;;;14.30;99.90;;;;;;6149116;23;20558;-78
2024/04/08 00:54:40;;;;;;;2.95;0.70;;;14.30;99.90;;;;;;6150442;23;20047;-78
2024/04/08 00:57:14;;;;;;;2.42;0.70;;;14.30;99.90;;;;;;6102595;23;20358;-79
2024/04/08 00:59:41;;;;;;;2.83;0.75;;;14.30;99.90;;;;;;6125341;23;20012;-78
2024/04/08 01:02:07;;;;;;;1.80;0.57;;;14.30;99.90;;;;;;6124036;23;20304;-77
2024/04/08 01:04:34;;;;;;;3.60;1.10;;;14.20;99.90;;;;;;6174757;23;20009;-79
2024/04/08 01:07:01;;;;;;;3.97;1.60;;;14.20;99.90;;;;;;6150246;23;20127;-78
2024/04/08 01:09:28;;;;;;;4.50;1.92;;;14.20;99.90;;;;;;6177147;23;20013;-78
2024/04/08 01:11:57;;;;;;;3.80;1.35;;;14.20;99.90;;;;;;6100195;23;20331;-79
2024/04/08 01:14:24;;;;;;;3.05;0.98;;;14.10;99.90;;;;;;6129823;23;20013;-80
2024/04/08 01:16:50;;;;;;;2.50;0.88;;;14.10;99.90;;;;;;6152244;23;20013;-79
2024/04/08 01:19:22;;;;;;;3.33;0.93;;;14.10;99.90;;;;;;6152105;23;20001;-78
2024/04/08 01:21:50;;;;;;;3.17;1.30;;;14.10;99.90;;;;;;6186394;23;20012;-79
2024/04/08 01:24:16;;;;;;;2.30;0.60;;;14.10;99.90;;;;;;6151915;23;20446;-78
2024/04/08 01:26:42;;;;;;;1.13;0.47;;;14.10;99.90;;;;;;6151027;23;20482;-78
2024/04/08 01:29:09;;;;;;;2.35;0.80;;;14.10;99.90;;;;;;6152236;23;20457;-78
2024/04/08 01:31:35;;;;;;;2.67;0.50;;;14.10;99.90;;;;;;6150852;23;20017;-78
2024/04/08 01:34:03;;;;;;;1.67;0.65;;;14.10;99.90;;;;;;6188497;23;20017;-79
2024/04/08 01:36:29;;;;;;;2.25;0.73;;;14.00;99.90;;;;;;6187254;23;20023;-78
2024/04/08 01:38:56;;;;;;;2.97;0.52;;;14.10;99.90;;;;;;6162248;23;20012;-78
2024/04/08 01:41:23;;;;;;;2.95;0.65;;;14.00;99.90;;;;;;6151397;23;20009;-79
2024/04/08 01:43:49;;;;;;;1.83;0.68;;;14.00;99.90;;;;;;6127446;23;20013;-78
2024/04/08 01:46:16;;;;;;;2.60;0.77;;;14.00;99.90;;;;;;6151915;23;20008;-78
2024/04/08 01:48:44;;;;;;;3.25;0.80;;;14.00;99.90;;;;;;6152454;23;20008;-78
2024/04/08 01:51:10;;;;;;;2.35;0.65;;;13.90;99.90;;;;;;6150954;23;20516;-78
2024/04/08 01:53:37;;;;;;;1.90;0.52;;;13.90;99.90;;;;;;6152676;23;20013;-79
2024/04/08 01:56:04;;;;;;;2.95;0.80;;;13.90;99.90;;;;;;6163065;23;20004;-79
2024/04/08 01:58:30;;;;;;;1.80;0.57;;;13.90;99.90;;;;;;6128925;23;20361;-78
2024/04/08 02:00:57;;;;;;;1.55;0.57;;;13.90;99.90;;;;;;6186234;23;20442;-78
2024/04/08 02:03:23;;;;;;;0.90;0.40;;;13.80;99.90;;;;;;6153654;23;20016;-78
2024/04/08 02:05:50;;;;;;;2.22;0.40;;;13.80;99.90;;;;;;6177814;23;20461;-78
2024/04/08 02:08:16;;;;;;;3.67;0.60;;;13.80;99.90;;;;;;6128736;23;20015;-78
2024/04/08 02:10:48;;;;;;;1.83;0.70;;;13.80;99.90;;;;;;6152366;23;20456;-79
2024/04/08 02:13:15;;;;;;;2.47;0.57;;;13.80;99.90;;;;;;6164430;23;20000;-78
2024/04/08 02:15:41;;;;;;;4.88;0.50;;;13.80;99.90;;;;;;6153783;23;20461;-78
2024/04/08 02:18:08;;;;;;;1.58;0.50;;;13.80;99.90;;;;;;6162653;23;20440;-78
2024/04/08 02:20:38;;;;;;;1.83;0.70;;;13.80;99.90;;;;;;6151822;23;20009;-77
2024/04/08 02:23:05;;;;;;;1.80;0.77;;;13.80;99.90;;;;;;6128383;23;20005;-77
2024/04/08 02:25:43;;;;;;;2.00;0.50;;;13.80;99.90;;;;;;6126947;23;20009;-78
2024/04/08 02:28:10;;;;;;;1.88;0.60;;;13.80;99.90;;;;;;6127872;23;20294;-78
2024/04/08 02:30:36;;;;;;;2.20;0.50;;;13.80;99.90;;;;;;6151473;23;20005;-78
2024/04/08 02:33:06;;;;;;;1.92;0.57;;;13.80;99.90;;;;;;6161577;23;20004;-78
2024/04/08 02:35:37;;;;;;;2.10;0.82;;;13.80;99.90;;;;;;6182023;23;20371;-78
2024/04/08 02:38:07;;;;;;;1.70;0.70;;;13.70;99.90;;;;;;6126969;23;20020;-79
2024/04/08 02:40:38;;;;;;;2.00;0.60;;;13.80;99.90;;;;;;6186033;23;20000;-78
2024/04/08 02:43:04;;;;;;;1.42;0.50;;;13.70;99.90;;;;;;6126495;23;20457;-78
2024/04/08 02:45:31;;;;;;;1.55;0.60;;;13.70;99.90;;;;;;6211501;23;20008;-78
2024/04/08 02:47:57;;;;;;;3.33;0.70;;;13.70;99.90;;;;;;6151819;23;20001;-78
2024/04/08 02:50:24;;;;;;;2.38;0.60;;;13.70;99.90;;;;;;6150031;23;20011;-77
2024/04/08 02:52:51;;;;;;;2.05;1.00;;;13.70;99.90;;;;;;6125130;23;20009;-78
2024/04/08 02:55:17;;;;;;;3.03;1.10;;;13.70;99.90;;;;;;6126662;23;20028;-78
2024/04/08 02:57:44;;;;;;;2.22;0.90;;;13.70;99.90;;;;;;6186095;23;19997;-78
2024/04/08 03:00:12;;;;;;;1.67;0.70;;;13.70;99.90;;;;;;6150351;23;20020;-79
2024/04/08 03:02:39;;;;;;;1.92;0.60;;;13.70;99.90;;;;;;6150100;23;20031;-78
2024/04/08 03:05:05;;;;;;;2.80;0.80;;;13.70;99.90;;;;;;6151055;23;20413;-79
2024/04/08 03:07:32;;;;;;;3.50;0.70;;;13.80;99.90;;;;;;6185624;23;20008;-78
2024/04/08 03:09:58;;;;;;;3.10;0.75;;;13.80;99.90;;;;;;6100994;23;20013;-78
2024/04/08 03:12:25;;;;;;;2.22;0.98;;;13.80;99.90;;;;;;6159952;23;20008;-78
2024/04/08 03:14:51;;;;;;;2.53;0.80;;;13.80;99.90;;;;;;6126128;23;20482;-79
2024/04/08 03:17:17;;;;;;;3.63;0.73;;;13.80;99.90;;;;;;6175153;23;20443;-78
2024/04/08 03:19:44;;;;;;;3.58;0.80;;;13.80;99.90;;;;;;6185343;23;20315;-79
2024/04/08 03:22:10;;;;;;;4.60;1.02;;;13.80;99.90;;;;;;6159367;23;20000;-77
2024/04/08 03:24:36;;;;;;;3.30;1.17;;;13.80;99.90;;;;;;6185307;23;20005;-79
2024/04/08 03:27:03;;;;;;;2.63;0.82;;;13.80;99.90;;;;;;6150434;23;20005;-78
2024/04/08 03:29:29;;;;;;;2.70;0.80;;;13.80;99.90;;;;;;6125007;23;20008;-78
2024/04/08 03:31:56;;;;;;;2.38;1.13;;;13.80;99.90;;;;;;6147857;23;20438;-79
2024/04/08 03:34:22;;;;;;;2.92;1.10;;;13.80;99.90;;;;;;6148349;23;20012;-80
2024/04/08 03:36:48;;;;;;;2.80;0.85;;;13.80;99.90;;;;;;6198885;23;20016;-79
2024/04/08 03:39:15;;;;;;;1.63;0.80;;;13.80;99.90;;;;;;6149743;23;20032;-79
2024/04/08 03:41:43;;;;;;;2.83;0.88;;;13.80;99.90;;;;;;6173053;23;20013;-79
2024/04/08 03:44:09;;;;;;;4.13;1.60;;;13.80;99.90;;;;;;6183973;23;20005;-79
2024/04/08 03:46:35;;;;;;;3.50;0.93;;;13.80;99.90;;;;;;6149072;23;20001;-79
2024/04/08 03:49:02;;;;;;;4.60;1.50;;;13.80;99.90;;;;;;6184258;23;20430;-78
2024/04/08 03:51:29;;;;;;;3.35;1.45;;;13.80;99.90;;;;;;6158813;23;20296;-78
2024/04/08 03:53:55;;;;;;;2.22;1.10;;;13.80;99.90;;;;;;6160028;23;20330;-77
2024/04/08 03:56:22;;;;;;;2.05;1.00;;;13.80;99.90;;;;;;6150680;23;20028;-77
2024/04/08 03:58:48;;;;;;;1.75;0.70;;;13.80;99.90;;;;;;6150104;23;20012;-78
2024/04/08 04:01:14;;;;;;;2.03;0.90;;;13.80;99.90;;;;;;6184198;23;20322;-77
2024/04/08 04:03:41;;;;;;;2.28;0.80;;;13.80;99.90;;;;;;6125888;23;20024;-77
2024/04/08 04:06:07;;;;;;;2.33;1.10;;;13.70;99.90;;;;;;6149974;23;20009;-77
2024/04/08 04:08:35;;;;;;;2.13;1.08;;;13.70;99.90;;;;;;6181508;23;20015;-80
2024/04/08 04:11:02;;;;;;;3.17;1.23;;;13.70;99.90;;;;;;6149701;23;20017;-78
2024/04/08 04:13:28;;;;;;;2.05;0.88;;;13.70;99.90;;;;;;6126042;23;20002;-76
2024/04/08 04:15:55;;;;;;;1.58;0.80;;;13.70;99.90;;;;;;6175377;23;20351;-79
2024/04/08 04:18:21;;;;;;;2.40;1.00;;;13.60;99.90;;;;;;6161099;23;20435;-78
2024/04/08 04:20:47;;;;;;;2.28;1.10;;;13.60;99.90;;;;;;6174765;23;20249;-77
2024/04/08 04:23:14;;;;;;;3.90;1.00;;;13.60;99.90;;;;;;6150891;23;20044;-81
2024/04/08 04:25:41;;;;;;;4.85;1.45;;;13.60;99.90;;;;;;6150425;23;20009;-77
2024/04/08 04:28:08;;;;;;;3.15;1.13;;;13.60;99.90;;;;;;6126320;23;20458;-78
2024/04/08 04:30:34;;;;;;;2.75;1.27;;;13.60;99.90;;;;;;6124699;23;20009;-78
2024/04/08 04:33:01;;;;;;;2.60;1.13;;;13.60;99.90;;;;;;6184379;23;20004;-78
2024/04/08 04:35:28;;;;;;;4.38;1.00;;;13.50;99.90;;;;;;6125218;23;20020;-78
2024/04/08 04:37:54;;;;;;;2.30;0.85;;;13.60;99.90;;;;;;6126052;23;20013;-77
2024/04/08 04:40:20;;;;;;;1.45;0.80;;;13.50;99.90;;;;;;6149270;23;20009;-78
2024/04/08 04:42:47;;;;;;;2.83;0.90;;;13.50;99.90;;;;;;6149642;23;20020;-78
2024/04/08 04:45:16;;;;;;;4.00;1.17;;;13.50;99.90;;;;;;6150774;23;20016;-77
2024/04/08 04:47:43;;;;;;;2.63;1.00;;;13.50;99.90;;;;;;6175073;23;20504;-78
2024/04/08 04:50:10;;;;;;;2.80;0.82;;;13.50;99.90;;;;;;6101001;23;20454;-78
2024/04/08 04:52:36;;;;;;;2.67;1.15;;;13.50;99.90;;;;;;6149173;23;20439;-78
2024/04/08 04:55:02;;;;;;;3.42;0.82;;;13.50;99.90;;;;;;6127307;23;20179;-79
2024/04/08 04:57:29;;;;;;;2.53;0.95;;;13.50;99.90;;;;;;6125997;23;20465;-78
2024/04/08 04:59:55;;;;;;;3.65;0.77;;;13.50;99.90;;;;;;6149251;23;20100;-79
2024/04/08 05:02:22;;;;;;;2.10;1.02;;;13.50;99.90;;;;;;6123951;23;20482;-79
2024/04/08 05:04:48;;;;;;;2.30;1.10;;;13.50;99.90;;;;;;6135492;23;20001;-78
2024/04/08 05:07:15;;;;;;;2.72;1.10;;;13.50;99.90;;;;;;6125771;23;20443;-79
2024/04/08 05:09:41;;;;;;;2.55;1.23;;;13.50;99.90;;;;;;6151188;23;20016;-78
2024/04/08 05:12:08;;;;;;;2.60;1.20;;;13.50;99.90;;;;;;6124069;23;20009;-78
2024/04/08 05:14:34;;;;;;;4.22;1.00;;;13.50;99.90;;;;;;6125717;23;20001;-79
2024/04/08 05:17:01;;;;;;;2.53;1.00;;;13.60;99.90;;;;;;6149870;23;20009;-79
2024/04/08 05:19:27;;;;;;;2.55;0.90;;;13.60;99.90;;;;;;6125267;23;20005;-79
2024/04/08 05:21:54;;;;;;;2.42;0.65;;;13.60;99.90;;;;;;6148670;23;20358;-79
2024/04/08 05:24:20;;;;;;;1.75;0.63;;;13.60;99.90;;;;;;6123153;23;20335;-80
2024/04/08 05:26:46;;;;;;;2.72;0.95;;;13.60;99.90;;;;;;6149351;23;20009;-79
2024/04/08 05:29:13;;;;;;;2.22;1.00;;;13.70;99.90;;;;;;6125685;23;20025;-78
2024/04/08 05:31:39;;;;;;;2.13;1.13;;;13.70;99.90;;;;;;6124645;23;20005;-78
2024/04/08 05:34:06;;;;;;;3.47;1.00;;;13.70;99.90;;;;;;6149874;23;20001;-78
2024/04/08 05:36:32;;;;;;;1.90;0.75;;;13.70;99.90;;;;;;6149079;23;20008;-77
2024/04/08 05:38:59;;;;;;;5.13;1.27;;;13.70;99.90;;;;;;6186584;23;20005;-78
2024/04/08 05:41:26;;;;;;;2.50;0.90;;;13.70;99.90;;;;;;6149055;23;20005;-78
2024/04/08 05:43:52;;;;;;;2.67;0.98;;;13.70;99.90;;;;;;6174881;23;20009;-79
2024/04/08 05:46:19;;;;;;;2.22;0.88;;;13.70;99.90;;;;;;6186415;23;20001;-79
2024/04/08 05:48:45;;;;;;;3.58;1.20;;;13.70;99.90;;;;;;6160656;23;20016;-78
2024/04/08 05:51:12;;;;;;;2.75;1.00;;;13.70;99.90;;;;;;6183130;23;20012;-78
2024/04/08 05:53:38;;;;;;;2.60;1.15;;;13.70;99.90;;;;;;6186686;23;20002;-79
2024/04/08 05:56:05;;;;;;;3.05;1.10;;;13.80;99.90;;;;;;6149581;23;20005;-81
2024/04/08 05:58:31;;;;;;;2.97;1.30;;;13.80;99.90;;;;;;6160160;23;20016;-79
2024/04/08 06:00:59;;;;;;;2.63;1.33;;;13.80;99.90;;;;;;6148794;23;20009;-79
2024/04/08 06:03:25;;;;;;;3.10;1.15;;;13.90;99.90;;;;;;6186831;23;20012;-80
2024/04/08 06:05:51;;;;;;;3.42;1.30;;;13.90;99.90;;;;;;6127148;23;20025;-79
2024/04/08 06:08:18;;;;;;;6.20;2.30;;;13.90;99.90;;;;;;6152051;23;20009;-79
2024/04/08 06:10:50;;;;;;;2.75;1.33;;;13.90;99.90;;;;;;6151103;23;20044;-82
2024/04/08 06:13:17;;;;;;;3.35;1.70;;;14.00;99.90;;;;;;6127631;23;20009;-82
2024/04/08 06:15:43;;;;;;;2.50;1.38;;;14.00;99.90;;;;;;6186659;23;20004;-79
2024/04/08 06:18:10;;;;;;;2.05;1.00;;;14.00;99.90;;;;;;6128095;23;20012;-80
2024/04/08 06:20:36;;;;;;;2.65;1.02;;;14.00;99.90;;;;;;6162363;23;20013;-80
2024/04/08 06:23:02;;;;;;;3.35;1.52;;;14.10;99.90;;;;;;6153682;23;20352;-78
2024/04/08 06:25:29;;;;;;;3.97;1.58;;;14.10;99.90;;;;;;6166232;23;20457;-81
2024/04/08 06:27:55;;;;;;;2.50;1.40;;;14.10;99.90;;;;;;6157053;23;20020;-79
2024/04/08 06:30:22;;;;;;;3.33;1.60;;;14.00;99.90;;;;;;6180601;23;20013;-79
2024/04/08 06:32:51;;;;;;;3.08;0.82;;;14.00;99.90;;;;;;6190990;23;20005;-79
2024/04/08 06:35:17;;;;;;;2.22;1.20;;;14.00;99.90;;;;;;6153385;23;20038;-79
2024/04/08 06:37:44;;;;;;;3.25;1.30;;;14.20;99.90;;;;;;6154506;23;20005;-80
2024/04/08 06:40:10;;;;;;;5.80;1.55;;;14.30;99.90;;;;;;6153190;23;20009;-79
2024/04/08 06:42:37;;;;;;;4.55;1.42;;;14.40;99.90;;;;;;6176090;23;20446;-81
2024/04/08 06:45:04;;;;;;;3.30;1.27;;;14.50;99.90;;;;;;6151569;23;20036;-79
2024/04/08 06:47:30;;;;;;;2.95;1.48;;;14.50;99.90;;;;;;6151454;23;20046;-80
2024/04/08 06:49:56;;;;;;;2.63;1.58;;;14.60;99.90;;;;;;6186201;23;20009;-79
2024/04/08 06:52:24;;;;;;;3.17;1.85;;;14.70;99.90;;;;;;6125788;23;20574;-79
2024/04/08 06:54:50;;;;;;;5.30;2.15;;;14.80;99.90;;;;;;6126363;23;20017;-78
2024/04/08 06:57:18;;;;;;;4.90;1.90;;;14.90;99.90;;;;;;6151191;23;20001;-78
2024/04/08 06:59:45;;;;;;;3.55;1.33;;;14.90;99.90;;;;;;6188080;23;20303;-79
2024/04/08 07:02:11;;;;;;;2.70;1.50;;;15.00;99.90;;;;;;6185222;23;20319;-78
2024/04/08 07:04:37;;;;;;;3.40;1.80;;;15.00;99.90;;;;;;6150544;23;20334;-78
2024/04/08 07:07:05;;;;;;;3.97;1.70;;;15.10;99.90;;;;;;6186098;23;20293;-80
2024/04/08 07:09:32;;;;;;;3.67;1.80;;;15.10;99.90;;;;;;6149500;23;20013;-81
2024/04/08 07:11:59;;;;;;;3.15;2.08;;;15.20;99.90;;;;;;6148808;23;20013;-79
2024/04/08 07:14:25;;;;;;;6.75;3.08;;;15.30;99.90;;;;;;6101644;23;20001;-80
2024/04/08 07:16:52;;;;;;;5.13;1.65;;;15.40;99.90;;;;;;6161537;23;20004;-81
2024/04/08 07:19:18;;;;;;;4.40;2.08;;;15.40;99.90;;;;;;6185141;23;20008;-81
2024/04/08 07:21:45;;;;;;;5.00;1.55;;;15.40;99.90;;;;;;6149422;23;20431;-82
2024/04/08 07:24:11;;;;;;;2.67;1.33;;;15.40;99.90;;;;;;6150623;23;20016;-81
2024/04/08 07:26:38;;;;;;;2.53;1.27;;;15.40;99.90;;;;;;6185173;23;20426;-82
2024/04/08 07:29:04;;;;;;;4.00;1.83;;;15.50;99.90;;;;;;6160842;23;20005;-82
2024/04/08 07:31:31;;;;;;;4.25;1.58;;;15.40;99.90;;;;;;6149600;23;20009;-81
2024/04/08 07:33:57;;;;;;;5.35;2.22;;;15.40;99.90;;;;;;6185688;23;20292;-78
2024/04/08 07:36:24;;;;;;;3.45;1.63;;;15.50;99.90;;;;;;6126196;23;20013;-79
2024/04/08 07:38:50;;;;;;;4.68;1.50;;;15.50;99.90;;;;;;6151011;23;20427;-80
2024/04/08 07:41:17;;;;;;;3.75;1.88;;;15.60;99.90;;;;;;6124206;23;20427;-79
2024/04/08 07:43:43;;;;;;;6.63;2.10;;;15.60;99.90;;;;;;6101718;23;20378;-80
2024/04/08 07:46:10;;;;;;;4.10;1.67;;;15.70;99.90;;;;;;6175051;23;20032;-80
2024/04/08 07:48:37;;;;;;;3.63;1.73;;;15.70;99.90;;;;;;6187522;23;20004;-79
2024/04/08 07:51:03;;;;;;;5.47;2.10;;;15.70;99.90;;;;;;6148910;23;20342;-80
2024/04/08 07:53:32;;;;;;;4.00;1.98;;;15.90;99.90;;;;;;6136325;23;20005;-78
2024/04/08 07:56:00;;;;;;;5.32;2.42;;;16.00;99.90;;;;;;6150473;23;20444;-77
2024/04/08 07:58:28;;;;;;;6.18;1.88;;;16.20;99.90;;;;;;6125422;23;20367;-79
2024/04/08 08:00:59;;;;;;;3.78;2.15;;;16.30;99.90;;;;;;6124495;23;20025;-78
2024/04/08 08:03:26;;;;;;;3.30;2.28;;;16.40;99.90;;;;;;6125638;23;20020;-78
2024/04/08 08:05:54;;;;;;;4.40;2.42;;;16.60;99.90;;;;;;6125646;23;20027;-77
2024/04/08 08:08:20;;;;;;;5.85;2.17;;;16.80;99.90;;;;;;6100585;23;20021;-79
2024/04/08 08:10:46;;;;;;;5.78;2.50;;;17.00;99.90;;;;;;6150428;23;20012;-79
2024/04/08 08:13:13;;;;;;;5.28;1.85;;;17.10;99.90;;;;;;6150132;23;20041;-77
2024/04/08 08:15:39;;;;;;;3.35;1.40;;;17.20;99.90;;;;;;6150381;23;20013;-78
2024/04/08 08:18:06;;;;;;;4.80;2.08;;;17.20;99.90;;;;;;6136273;23;20005;-79
2024/04/08 08:20:33;;;;;;;4.93;3.35;;;17.20;99.90;;;;;;6150150;23;20092;-80
2024/04/08 08:23:00;;;;;;;3.35;1.77;;;17.20;99.90;;;;;;6184728;23;20028;-79
2024/04/08 08:25:27;;;;;;;5.55;1.95;;;17.10;99.90;;;;;;6150196;23;20466;-80
2024/04/08 08:27:53;;;;;;;3.60;1.88;;;17.10;99.90;;;;;;6126372;23;20028;-78
2024/04/08 08:30:19;;;;;;;6.00;1.98;;;17.30;99.90;;;;;;6149686;23;20031;-79
2024/04/08 08:32:46;;;;;;;3.10;1.25;;;17.40;99.90;;;;;;6202853;23;20004;-78
2024/04/08 08:35:13;;;;;;;3.63;1.20;;;17.50;99.90;;;;;;6175350;23;20534;-77
2024/04/08 08:37:40;;;;;;;5.65;1.98;;;17.60;99.90;;;;;;6093798;23;20013;-77
2024/04/08 08:40:07;;;;;;;5.38;1.27;;;17.60;99.90;;;;;;6177107;23;20001;-78
2024/04/08 08:42:34;;;;;;;2.92;1.25;;;17.70;99.90;;;;;;6151698;23;20343;-77
2024/04/08 08:45:03;;;;;;;3.05;0.90;;;17.90;99.90;;;;;;6179550;23;20304;-77
2024/04/08 08:47:30;;;;;;;3.25;1.02;;;18.20;99.90;;;;;;6154348;23;20016;-77
2024/04/08 08:49:57;;;;;;;2.85;1.10;;;18.30;99.90;;;;;;6178467;23;20332;-77
2024/04/08 08:52:24;;;;;;;2.40;0.60;;;18.30;99.90;;;;;;6118114;23;20017;-78
2024/04/08 08:54:52;;;;;;;1.98;0.60;;;18.10;99.90;;;;;;6153980;23;20496;-78
2024/04/08 08:57:19;;;;;;;9.32;4.97;;;17.90;99.90;;;;;;6119240;23;20009;-77
2024/04/08 08:59:50;;;;;;;3.35;2.00;;;17.90;99.90;;;;;;6143189;23;20008;-76
2024/04/08 09:02:17;;;;;;;2.97;1.10;;;17.90;99.90;;;;;;6127893;23;20321;-77
2024/04/08 09:04:44;;;;;;;11.70;6.07;;;18.00;99.90;;;;;;6192845;23;20032;-77
2024/04/08 09:07:10;;;;;;;6.32;2.33;;;18.20;99.90;;;;;;6143565;23;20020;-77
2024/04/08 09:09:36;;;;;;;3.78;1.13;;;18.30;99.90;;;;;;6144679;23;20028;-77
2024/04/08 09:12:03;;;;;;;3.45;1.13;;;18.40;99.90;;;;;;6118626;23;20579;-78
2024/04/08 09:16:02;;;;;;;2.47;0.82;;;18.50;99.90;;;;;;5475569;25;20672;-80
2024/04/08 09:18:29;;;;;;;4.15;2.17;;;18.60;99.90;;;;;;5377867;26;20010;-80
2024/04/08 09:20:55;;;;;;;3.17;1.88;;;18.70;99.90;;;;;;5380001;26;20003;-80
2024/04/08 09:23:21;;;;;;;5.20;3.10;;;18.70;99.90;;;;;;5355339;26;20000;-79
2024/04/08 09:25:48;;;;;;;7.95;3.67;;;18.60;99.90;;;;;;5384770;26;20350;-80
2024/04/08 09:28:14;;;;;;;4.85;4.03;;;18.70;99.90;;;;;;5333538;26;20483;-80
2024/04/08 09:30:42;;;;;;;3.90;2.10;;;18.70;99.90;;;;;;5418810;26;19999;-80
2024/04/08 09:33:13;;;;;;;3.92;2.03;;;18.70;99.90;;;;;;5359287;26;20014;-80
2024/04/08 09:35:41;;;;;;;4.20;1.52;;;18.70;99.90;;;;;;5358220;26;19999;-79
2024/04/08 09:38:09;;;;;;;3.05;1.45;;;18.70;99.90;;;;;;5416490;26;20003;-79
2024/04/08 09:40:39;;;;;;;4.20;1.60;;;18.70;99.90;;;;;;5385190;26;19999;-79
2024/04/08 09:43:07;;;;;;;3.97;2.58;;;18.80;99.90;;;;;;5378664;26;20008;-79
2024/04/08 09:45:35;;;;;;;5.93;3.33;;;19.10;99.90;;;;;;5353776;26;20010;-80
2024/04/08 09:48:02;;;;;;;3.22;2.20;;;19.40;99.90;;;;;;5381799;26;20000;-80
2024/04/08 09:50:29;;;;;;;5.15;2.35;;;19.50;99.90;;;;;;5388101;26;20003;-80
2024/04/08 09:52:55;;;;;;;5.25;1.95;;;19.60;99.90;;;;;;5384844;26;20661;-79
2024/04/08 09:55:37;;;;;;;4.03;1.83;;;19.80;99.90;;;;;;5382914;26;19999;-80
2024/04/08 09:58:08;;;;;;;3.25;1.83;;;19.90;99.90;;;;;;5354860;26;20000;-80
2024/04/08 10:00:36;;;;;;;6.75;2.17;;;20.00;99.90;;;;;;5352645;26;20463;-80
2024/04/08 10:03:07;;;;;;;2.55;1.50;;;20.00;99.90;;;;;;5386661;26;20469;-77
2024/04/08 10:05:33;;;;;;;4.40;2.33;;;20.10;99.90;;;;;;5381610;26;20003;-80
2024/04/08 10:08:01;;;;;;;4.75;2.70;;;20.10;99.90;;;;;;5381997;26;19999;-79
2024/04/08 10:10:28;;;;;;;3.70;1.98;;;20.10;99.90;;;;;;5351805;26;19998;-80
2024/04/08 10:13:01;;;;;;;2.85;1.75;;;20.20;99.90;;;;;;5385107;26;20022;-80
2024/04/08 10:15:31;;;;;;;3.20;1.55;;;20.20;99.90;;;;;;5417154;26;20013;-80
2024/04/08 10:17:57;;;;;;;3.47;1.70;;;20.30;99.90;;;;;;5414260;26;20004;-82
2024/04/08 10:20:25;;;;;;;5.38;1.70;;;20.50;99.90;;;;;;5444945;26;20511;-81
2024/04/08 10:22:52;;;;;;;2.28;1.38;;;20.50;99.90;;;;;;5359789;26;20005;-81
2024/04/08 10:25:58;;;;;;;2.22;1.10;;;20.50;99.90;;;;;;5358488;26;20484;-82
2024/04/08 10:28:28;;;;;;;3.85;1.40;;;20.80;99.90;;;;;;5401832;26;19999;-81
2024/04/08 10:31:02;;;;;;;2.70;1.40;;;21.40;99.90;;;;;;5338001;26;20018;-82
2024/04/08 10:33:29;;;;;;;2.55;1.05;;;21.60;99.90;;;;;;5344368;26;20006;-81
2024/04/08 10:35:55;;;;;;;6.55;1.30;;;21.90;99.90;;;;;;5342616;26;19999;-82
2024/04/08 10:38:21;;;;;;;3.17;1.35;;;22.40;99.90;;;;;;5376705;26;20022;-81
2024/04/08 10:40:47;;;;;;;2.58;0.90;;;22.80;99.90;;;;;;5342016;26;19995;-81
2024/04/08 10:43:14;;;;;;;3.92;1.33;;;23.20;99.90;;;;;;5405121;26;20357;-80
2024/04/08 10:45:41;;;;;;;4.00;0.88;;;23.50;99.90;;;;;;5370167;26;20008;-81
2024/04/08 10:48:11;;;;;;;6.13;1.30;;;23.80;99.90;;;;;;5347685;26;20017;-82
2024/04/08 10:50:38;;;;;;;3.33;1.52;;;23.70;99.90;;;;;;5338663;26;20007;-81
2024/04/08 10:53:05;;;;;;;4.63;2.15;;;23.40;99.90;;;;;;5370078;26;20003;-79
2024/04/08 10:55:31;;;;;;;3.30;2.15;;;23.10;99.90;;;;;;5404862;26;20014;-81
2024/04/08 10:57:58;;;;;;;3.92;2.10;;;22.90;99.90;;;;;;5375772;26;20442;-83
2024/04/08 11:00:26;;;;;;;2.78;1.90;;;22.70;99.90;;;;;;5403956;26;20525;-82
2024/04/08 11:02:53;;;;;;;3.47;2.35;;;22.60;99.90;;;;;;5396779;26;20003;-82
2024/04/08 11:05:20;;;;;;;2.78;1.63;;;22.70;99.90;;;;;;5371010;26;20010;-81
2024/04/08 11:07:46;;;;;;;3.33;2.75;;;22.70;99.90;;;;;;5311690;26;20661;-82
2024/04/08 11:10:15;;;;;;;3.83;2.70;;;22.70;99.90;;;;;;5337556;26;20468;-82
2024/04/08 11:12:42;;;;;;;4.00;2.67;;;22.70;99.90;;;;;;5340491;26;20010;-82
2024/04/08 11:15:09;;;;;;;2.22;1.45;;;22.80;99.90;;;;;;5374541;26;20004;-83
2024/04/08 11:17:36;;;;;;;6.53;4.90;;;22.90;99.90;;;;;;5343696;26;19998;-83
2024/04/08 11:20:05;;;;;;;3.95;3.00;;;22.90;99.90;;;;;;5399920;26;19998;-82
2024/04/08 11:22:33;;;;;;;2.80;1.60;;;22.90;99.90;;;;;;5395893;26;19999;-84
2024/04/08 11:25:02;;;;;;;3.00;1.67;;;23.10;99.90;;;;;;5400607;26;21378;-86
2024/04/08 11:27:29;;;;;;;2.67;1.30;;;23.40;99.90;;;;;;5341946;26;20021;-81
2024/04/08 11:29:55;;;;;;;3.30;2.22;;;23.80;99.90;;;;;;5399356;26;20018;-78
2024/04/08 11:32:22;;;;;;;3.45;1.52;;;24.00;99.90;;;;;;5370743;26;22838;-79
2024/04/08 11:34:49;;;;;;;3.28;1.65;;;24.00;99.90;;;;;;5338822;26;20368;-79
2024/04/08 11:37:16;;;;;;;5.07;3.63;;;24.00;99.90;;;;;;5341422;26;20000;-79
2024/04/08 11:39:44;;;;;;;3.63;2.40;;;23.80;99.90;;;;;;5366539;26;20449;-79
2024/04/08 11:42:11;;;;;;;3.90;2.45;;;23.60;99.90;;;;;;5335104;26;20003;-78
2024/04/08 11:44:43;;;;;;;3.58;2.30;;;23.30;99.90;;;;;;5363721;26;20078;-80
2024/04/08 11:47:17;;;;;;;3.72;1.80;;;23.00;99.90;;;;;;5399732;26;20465;-79
2024/04/08 11:49:44;;;;;;;2.75;2.03;;;22.70;99.90;;;;;;5368108;26;20017;-82
2024/04/08 11:52:12;;;;;;;2.90;2.25;;;22.50;99.90;;;;;;5367185;26;20408;-80
2024/04/08 11:54:40;;;;;;;3.92;2.25;;;22.00;99.90;;;;;;5342389;26;20007;-80
2024/04/08 11:57:11;;;;;;;2.83;1.63;;;21.60;99.90;;;;;;5368360;26;20007;-79
2024/04/08 11:59:38;;;;;;;3.30;1.90;;;21.20;99.90;;;;;;5373357;26;20007;-79
2024/04/08 12:02:04;;;;;;;5.45;4.13;;;21.00;99.90;;;;;;5340727;26;20003;-78
2024/04/08 12:04:31;;;;;;;4.38;2.53;;;20.90;99.90;;;;;;5342245;26;20007;-79
2024/04/08 12:06:58;;;;;;;5.35;3.60;;;20.80;99.90;;;;;;5338174;26;19999;-80
2024/04/08 12:09:24;;;;;;;3.33;2.20;;;20.80;99.90;;;;;;5365485;26;20006;-80
2024/04/08 12:11:51;;;;;;;4.22;3.40;;;20.90;99.90;;;;;;5346181;26;19999;-80
2024/04/08 12:14:18;;;;;;;5.45;4.95;;;20.90;99.90;;;;;;5369387;26;20011;-80
2024/04/08 12:16:44;;;;;;;4.78;3.28;;;21.20;99.90;;;;;;5342705;26;20003;-79
2024/04/08 12:19:11;;;;;;;5.35;4.30;;;21.40;99.90;;;;;;5337717;26;20339;-79
2024/04/08 12:21:37;;;;;;;4.15;3.75;;;21.60;99.90;;;;;;5426448;26;20014;-79
2024/04/08 12:24:04;;;;;;;6.80;6.10;;;21.60;99.90;;;;;;5368553;26;20011;-79
2024/04/08 12:26:31;;;;;;;4.57;3.97;;;21.60;99.90;;;;;;5306183;26;20003;-80
2024/04/08 12:28:57;;;;;;;4.25;3.50;;;21.50;99.90;;;;;;5396560;26;20443;-81
2024/04/08 12:31:24;;;;;;;6.18;5.05;;;21.40;99.90;;;;;;5337852;26;20003;-81
2024/04/08 12:33:50;;;;;;;5.32;4.05;;;21.30;99.90;;;;;;5336943;26;20489;-80
2024/04/08 12:36:17;;;;;;;7.00;4.15;;;21.20;99.90;;;;;;5366074;26;19999;-80
2024/04/08 12:38:43;;;;;;;6.57;5.13;;;21.20;99.90;;;;;;5400321;26;20429;-80
2024/04/08 12:41:09;;;;;;;5.63;5.07;;;21.10;99.90;;;;;;5397386;26;21329;-80
2024/04/08 12:43:36;;;;;;;8.88;7.40;;;20.90;99.90;;;;;;5398240;26;20000;-81
2024/04/08 12:46:03;;;;;;;7.53;6.07;;;20.70;99.90;;;;;;5334096;26;20006;-80
2024/04/08 12:48:29;;;;;;;7.75;5.82;;;20.60;99.90;;;;;;5366453;26;19995;-82